N62740 KROA-KLYH
Flight info
| Callsign | N62740 |
|---|---|
| Flight time | N/A |
| Altitude | 3500 |
| Route | DIRECT |
| Aircraft | C172/L-V/N |
Departure
| Time | 2026-04-16 03:11 |
|---|---|
| Airport | Roanoke–Blacksburg Regional Airport (KROA) |
Arrival
| Time | N/A |
|---|---|
| Airport | Lynchburg Regional Airport - Preston Glenn Field (KLYH) |
| Time | Latitude | Longitude | Altitude | Speed | Heading |
|---|---|---|---|---|---|
| 2026-04-16 02:58 | 37.32131 | -79.97291 | 1174 ft | 0 kts | 232° |
| 2026-04-16 03:09 | 37.32131 | -79.97292 | 1174 ft | 4 kts | 231° |
| 2026-04-16 03:09 | 37.32063 | -79.97264 | 1173 ft | 19 kts | 151° |
| 2026-04-16 03:09 | 37.31949 | -79.97280 | 1173 ft | 17 kts | 248° |
| 2026-04-16 03:10 | 37.32043 | -79.97437 | 1175 ft | 44 kts | 327° |
| 2026-04-16 03:10 | 37.32433 | -79.97748 | 1202 ft | 82 kts | 321° |
| 2026-04-16 03:10 | 37.32916 | -79.97789 | 1476 ft | 82 kts | 48° |
| 2026-04-16 03:10 | 37.33052 | -79.97137 | 1720 ft | 81 kts | 110° |
| 2026-04-16 03:11 | 37.32820 | -79.96292 | 1650 ft | 115 kts | 117° |
| 2026-04-16 03:11 | 37.32452 | -79.95461 | 1993 ft | 102 kts | 128° |
| 2026-04-16 03:11 | 37.32111 | -79.94675 | 2233 ft | 100 kts | 105° |
| 2026-04-16 03:11 | 37.32083 | -79.93784 | 2400 ft | 108 kts | 96° |
| 2026-04-16 03:12 | 37.32036 | -79.92831 | 2552 ft | 111 kts | 102° |
| 2026-04-16 03:12 | 37.31924 | -79.91832 | 2696 ft | 111 kts | 103° |
| 2026-04-16 03:12 | 37.31838 | -79.90980 | 3058 ft | 100 kts | 105° |
| 2026-04-16 03:12 | 37.31739 | -79.90069 | 3183 ft | 111 kts | 102° |
| 2026-04-16 03:13 | 37.31587 | -79.89020 | 3138 ft | 128 kts | 104° |
| 2026-04-16 03:13 | 37.31497 | -79.87926 | 3268 ft | 128 kts | 98° |
| 2026-04-16 03:13 | 37.31437 | -79.86820 | 3329 ft | 132 kts | 97° |
| 2026-04-16 03:13 | 37.31416 | -79.85680 | 3464 ft | 128 kts | 92° |
| 2026-04-16 03:14 | 37.31448 | -79.84584 | 3617 ft | 126 kts | 93° |
| 2026-04-16 03:14 | 37.31469 | -79.83854 | 3733 ft | 122 kts | 91° |
| 2026-04-16 03:14 | 37.31634 | -79.82478 | 3967 ft | 120 kts | 78° |
| 2026-04-16 03:14 | 37.31841 | -79.81467 | 4074 ft | 125 kts | 79° |
| 2026-04-16 03:15 | 37.31949 | -79.80746 | 4182 ft | 121 kts | 85° |
| 2026-04-16 03:15 | 37.32049 | -79.79359 | 4347 ft | 125 kts | 90° |
| 2026-04-16 03:15 | 37.32162 | -79.78191 | 4301 ft | 136 kts | 89° |
| 2026-04-16 03:15 | 37.32202 | -79.77423 | 4429 ft | 129 kts | 90° |
| 2026-04-16 03:16 | 37.32258 | -79.76268 | 4406 ft | 137 kts | 87° |
| 2026-04-16 03:16 | 37.32296 | -79.75048 | 4365 ft | 143 kts | 98° |
| 2026-04-16 03:16 | 37.32236 | -79.73857 | 4570 ft | 129 kts | 86° |
| 2026-04-16 03:16 | 37.32496 | -79.72829 | 4807 ft | 116 kts | 59° |
| 2026-04-16 03:17 | 37.32489 | -79.71918 | 4571 ft | 136 kts | 162° |
| 2026-04-16 03:17 | 37.31659 | -79.72158 | 4491 ft | 120 kts | 220° |
| 2026-04-16 03:17 | 37.31008 | -79.72739 | 4578 ft | 113 kts | 219° |
| 2026-04-16 03:17 | 37.30308 | -79.73257 | 4489 ft | 120 kts | 217° |
| 2026-04-16 03:18 | 37.29584 | -79.73734 | 4527 ft | 115 kts | 206° |
| 2026-04-16 03:18 | 37.28848 | -79.74001 | 4770 ft | 103 kts | 199° |
| 2026-04-16 03:18 | 37.28078 | -79.74135 | 4610 ft | 126 kts | 194° |
| 2026-04-16 03:18 | 37.27233 | -79.74164 | 4724 ft | 119 kts | 181° |
| 2026-04-16 03:19 | 37.26375 | -79.73923 | 4553 ft | 131 kts | 172° |
| 2026-04-16 03:19 | 37.25514 | -79.73599 | 4562 ft | 127 kts | 170° |
| 2026-04-16 03:19 | 37.24694 | -79.73273 | 4539 ft | 121 kts | 171° |
| 2026-04-16 03:19 | 37.23886 | -79.73002 | 4465 ft | 120 kts | 174° |
| 2026-04-16 03:20 | 37.23078 | -79.72717 | 4390 ft | 121 kts | 171° |
| 2026-04-16 03:20 | 37.22294 | -79.72443 | 4389 ft | 116 kts | 172° |
| 2026-04-16 03:20 | 37.21520 | -79.72108 | 4329 ft | 118 kts | 167° |
| 2026-04-16 03:20 | 37.20767 | -79.71740 | 4311 ft | 115 kts | 169° |
| 2026-04-16 03:21 | 37.20025 | -79.71399 | 4302 ft | 114 kts | 171° |
| 2026-04-16 03:21 | 37.19279 | -79.71141 | 4332 ft | 110 kts | 174° |
| 2026-04-16 03:21 | 37.18530 | -79.70917 | 4289 ft | 111 kts | 178° |
| 2026-04-16 03:21 | 37.17756 | -79.70754 | 4252 ft | 112 kts | 179° |
| 2026-04-16 03:22 | 37.17025 | -79.70637 | 4388 ft | 96 kts | 188° |
| 2026-04-16 03:22 | 37.16320 | -79.70668 | 4344 ft | 101 kts | 191° |
| 2026-04-16 03:22 | 37.15639 | -79.70712 | 4463 ft | 92 kts | 194° |
| 2026-04-16 03:22 | 37.14944 | -79.70786 | 4382 ft | 105 kts | 192° |
| 2026-04-16 03:23 | 37.14232 | -79.70864 | 4419 ft | 102 kts | 194° |
| 2026-04-16 03:23 | 37.13496 | -79.70973 | 4287 ft | 113 kts | 194° |
| 2026-04-16 03:23 | 37.12698 | -79.71095 | 4169 ft | 115 kts | 194° |
| 2026-04-16 03:23 | 37.12365 | -79.71149 | 4125 ft | 116 kts | 194° |
| 2026-04-16 03:24 | 37.11614 | -79.71441 | 4065 ft | 101 kts | 216° |
| 2026-04-16 03:24 | 37.11089 | -79.72042 | 3766 ft | 119 kts | 245° |
| 2026-04-16 03:25 | 37.11145 | -79.73110 | 3375 ft | 136 kts | 305° |
| 2026-04-16 03:25 | 37.12090 | -79.73301 | 2883 ft | 168 kts | 28° |
| 2026-04-16 03:25 | 37.12926 | -79.72392 | 2961 ft | 145 kts | 44° |
| 2026-04-16 03:25 | 37.13275 | -79.71317 | 3205 ft | 124 kts | 97° |
| 2026-04-16 03:26 | 37.13055 | -79.70227 | 3014 ft | 139 kts | 128° |
| 2026-04-16 03:26 | 37.12422 | -79.69372 | 2981 ft | 123 kts | 157° |
| 2026-04-16 03:26 | 37.11703 | -79.68906 | 2982 ft | 120 kts | 173° |
| 2026-04-16 03:26 | 37.10864 | -79.68730 | 2877 ft | 119 kts | 184° |
| 2026-04-16 03:27 | 37.10092 | -79.68483 | 2945 ft | 116 kts | 174° |
| 2026-04-16 03:27 | 37.09299 | -79.68217 | 2824 ft | 120 kts | 175° |
| 2026-04-16 03:27 | 37.08485 | -79.67967 | 2730 ft | 121 kts | 178° |
| 2026-04-16 03:27 | 37.07666 | -79.67786 | 2648 ft | 118 kts | 181° |
| 2026-04-16 03:28 | 37.06855 | -79.67665 | 2570 ft | 119 kts | 178° |
| 2026-04-16 03:28 | 37.06152 | -79.67086 | 2607 ft | 121 kts | 150° |
| 2026-04-16 03:28 | 37.05497 | -79.66339 | 2412 ft | 131 kts | 150° |
| 2026-04-16 03:28 | 37.04838 | -79.65586 | 2342 ft | 128 kts | 149° |
| 2026-04-16 03:29 | 37.04185 | -79.64831 | 2252 ft | 128 kts | 150° |
| 2026-04-16 03:29 | 37.03575 | -79.64173 | 2528 ft | 106 kts | 159° |
| 2026-04-16 03:29 | 37.02990 | -79.63614 | 2605 ft | 112 kts | 161° |
| 2026-04-16 03:29 | 37.02305 | -79.63152 | 2721 ft | 106 kts | 163° |
| 2026-04-16 03:30 | 37.01730 | -79.62670 | 3001 ft | 101 kts | 156° |
| 2026-04-16 03:30 | 37.01224 | -79.62057 | 3236 ft | 103 kts | 141° |
| 2026-04-16 03:30 | 37.00721 | -79.61348 | 3304 ft | 113 kts | 141° |
| 2026-04-16 03:30 | 37.00284 | -79.60553 | 3540 ft | 111 kts | 123° |
| 2026-04-16 03:31 | 36.99931 | -79.59689 | 3696 ft | 111 kts | 134° |
| 2026-04-16 03:31 | 36.99497 | -79.58939 | 3942 ft | 104 kts | 134° |
| 2026-04-16 03:31 | 36.99050 | -79.58164 | 3949 ft | 120 kts | 130° |
| 2026-04-16 03:31 | 36.98533 | -79.57374 | 4064 ft | 116 kts | 139° |
| 2026-04-16 03:32 | 36.98012 | -79.56634 | 4219 ft | 113 kts | 138° |
| 2026-04-16 03:32 | 36.97595 | -79.56060 | 4000 ft | 101 kts | 141° |
| 2026-04-16 03:34 | 38.18345 | -85.74154 | 475 ft | 0 kts | 138° |
| 2026-04-16 03:43 | 38.18349 | -85.74181 | 473 ft | 10 kts | 325° |
| 2026-04-16 03:43 | 38.18364 | -85.74195 | 474 ft | 0 kts | 326° |